createdAt,value
2023-06-29T00:01:12.677Z,5.40
2023-06-29T00:04:13.043Z,5.10
2023-06-29T00:06:51.574Z,6.00
2023-06-29T00:09:30.965Z,6.70
2023-06-29T00:12:11.059Z,6.10
2023-06-29T00:14:49.473Z,5.80
2023-06-29T00:17:28.920Z,4.90
2023-06-29T00:20:22.492Z,5.30
2023-06-29T00:22:54.185Z,5.80
2023-06-29T00:25:33.600Z,6.00
2023-06-29T00:28:13.818Z,5.50
2023-06-29T00:30:52.390Z,5.40
2023-06-29T00:33:31.332Z,5.70
2023-06-29T00:36:10.659Z,4.00
2023-06-29T00:38:49.495Z,5.10
2023-06-29T00:41:28.189Z,3.90
2023-06-29T00:44:06.513Z,5.70
2023-06-29T00:46:45.497Z,5.40
2023-06-29T00:49:24.682Z,3.70
2023-06-29T00:52:04.008Z,4.40
2023-06-29T00:54:43.487Z,4.90
2023-06-29T00:57:22.282Z,4.30
2023-06-29T01:00:01.067Z,5.10
2023-06-29T01:02:42.516Z,4.70
2023-06-29T01:05:22.713Z,5.10
2023-06-29T01:08:27.551Z,3.90
2023-06-29T01:10:59.944Z,4.30
2023-06-29T01:13:36.727Z,5.00
2023-06-29T01:16:16.436Z,4.80
2023-06-29T01:18:56.643Z,4.80
2023-06-29T01:21:38.050Z,4.40
2023-06-29T01:24:17.650Z,5.40
2023-06-29T01:26:56.106Z,4.60
2023-06-29T01:29:34.609Z,5.00
2023-06-29T01:32:15.540Z,5.00
2023-06-29T01:34:55.649Z,5.00
2023-06-29T01:37:38.962Z,5.30
2023-06-29T01:40:14.036Z,4.80
2023-06-29T01:42:53.943Z,5.40
2023-06-29T01:45:33.387Z,4.90
2023-06-29T01:48:06.506Z,5.00
2023-06-29T01:50:41.195Z,5.90
2023-06-29T01:53:20.072Z,4.80
2023-06-29T01:55:58.210Z,4.70
2023-06-29T01:58:37.134Z,4.60
2023-06-29T02:01:16.381Z,4.50
2023-06-29T02:03:55.161Z,6.50
2023-06-29T02:06:33.898Z,5.10
2023-06-29T02:09:05.961Z,4.80
2023-06-29T02:11:53.980Z,5.50
2023-06-29T02:14:32.466Z,5.50
2023-06-29T02:17:12.360Z,5.50
2023-06-29T02:19:51.247Z,4.70
2023-06-29T02:22:30.033Z,5.00
2023-06-29T02:25:00.327Z,4.60
2023-06-29T02:27:37.414Z,6.20
2023-06-29T02:30:16.305Z,6.20
2023-06-29T02:32:55.461Z,5.60
2023-06-29T02:35:33.935Z,4.80
2023-06-29T02:38:04.526Z,5.30
2023-06-29T02:40:43.040Z,5.00
2023-06-29T02:43:21.158Z,4.80
2023-06-29T02:45:59.670Z,5.80
2023-06-29T02:48:38.264Z,6.30
2023-06-29T02:51:16.419Z,5.50
2023-06-29T02:53:54.934Z,5.60
2023-06-29T02:56:33.635Z,5.10
2023-06-29T02:59:06.426Z,5.30
2023-06-29T03:01:38.899Z,5.20
2023-06-29T03:04:17.594Z,5.90
2023-06-29T03:06:49.278Z,5.60
2023-06-29T03:09:27.276Z,5.80
2023-06-29T03:12:05.948Z,6.40
2023-06-29T03:14:44.493Z,6.20
2023-06-29T03:17:25.990Z,6.10
2023-06-29T03:20:04.278Z,5.80
2023-06-29T03:22:42.303Z,5.10
2023-06-29T03:25:21.033Z,6.40
2023-06-29T03:27:59.659Z,5.80
2023-06-29T03:30:38.099Z,5.30
2023-06-29T03:33:16.605Z,4.40
2023-06-29T03:35:55.239Z,4.80
2023-06-29T03:38:33.504Z,5.20
2023-06-29T03:41:03.708Z,5.70
2023-06-29T03:43:39.812Z,5.20
2023-06-29T03:46:09.993Z,6.10
2023-06-29T03:48:50.927Z,4.40
2023-06-29T03:51:29.530Z,5.80
2023-06-29T03:54:09.158Z,5.90
2023-06-29T03:56:48.427Z,5.90
2023-06-29T03:59:26.984Z,5.00
2023-06-29T04:02:05.278Z,5.10
2023-06-29T04:04:45.093Z,6.10
2023-06-29T04:07:23.023Z,5.00
2023-06-29T04:09:53.512Z,5.80
2023-06-29T04:12:23.780Z,5.70
2023-06-29T04:14:54.063Z,6.50
2023-06-29T04:17:35.365Z,5.90
2023-06-29T04:20:15.016Z,6.00
2023-06-29T04:22:53.613Z,5.40
2023-06-29T04:25:34.477Z,5.70
2023-06-29T04:28:14.188Z,6.00
2023-06-29T04:30:52.459Z,4.80
2023-06-29T04:33:31.347Z,3.70
2023-06-29T04:36:16.940Z,6.70
2023-06-29T04:38:55.904Z,6.90
2023-06-29T04:41:37.917Z,6.60
2023-06-29T04:44:16.583Z,3.60
2023-06-29T04:46:54.830Z,5.50
2023-06-29T04:49:32.023Z,6.50
2023-06-29T04:52:12.089Z,7.40
2023-06-29T04:54:50.606Z,7.90
2023-06-29T04:57:29.933Z,8.00
2023-06-29T05:00:12.504Z,7.50
2023-06-29T05:02:51.786Z,5.50
2023-06-29T05:05:30.915Z,6.70
2023-06-29T05:08:11.823Z,5.30
2023-06-29T05:10:51.874Z,5.30
2023-06-29T05:13:30.295Z,5.30
2023-06-29T05:16:10.016Z,6.50
2023-06-29T05:18:48.248Z,6.70
2023-06-29T05:21:28.434Z,8.50
2023-06-29T05:24:06.668Z,5.50
2023-06-29T05:26:45.537Z,7.20
2023-06-29T05:29:23.566Z,6.90
2023-06-29T05:32:02.354Z,5.70
2023-06-29T05:34:41.529Z,7.00
2023-06-29T05:37:19.913Z,7.10
2023-06-29T05:40:00.893Z,7.90
2023-06-29T05:42:31.329Z,8.10
2023-06-29T05:45:04.309Z,9.00
2023-06-29T05:47:42.571Z,8.90
2023-06-29T05:50:21.914Z,8.30
2023-06-29T05:53:00.285Z,9.40
2023-06-29T05:55:38.232Z,9.40
2023-06-29T05:58:16.911Z,10.40
2023-06-29T06:00:55.199Z,9.30
2023-06-29T06:03:32.705Z,8.50
2023-06-29T06:06:12.199Z,9.60
2023-06-29T06:08:49.644Z,8.80
2023-06-29T06:11:27.177Z,11.30
2023-06-29T06:14:05.425Z,10.90
2023-06-29T06:16:38.464Z,11.40
2023-06-29T06:19:17.946Z,10.50
2023-06-29T06:21:48.391Z,9.50
2023-06-29T06:24:24.802Z,10.40
2023-06-29T06:27:02.776Z,9.70
2023-06-29T06:29:33.171Z,5.90
2023-06-29T06:32:13.446Z,8.60
2023-06-29T06:34:50.178Z,8.70
2023-06-29T06:37:27.961Z,8.70
2023-06-29T06:40:19.121Z,8.60
2023-06-29T06:42:58.978Z,7.50
2023-06-29T06:45:37.920Z,8.30
2023-06-29T06:48:16.246Z,9.80
2023-06-29T06:50:55.104Z,9.50
2023-06-29T06:53:33.575Z,7.70
2023-06-29T06:56:12.455Z,9.00
2023-06-29T06:58:51.513Z,9.90
2023-06-29T07:01:29.935Z,8.60
2023-06-29T07:04:09.133Z,7.60
2023-06-29T07:06:47.967Z,7.50
2023-06-29T07:09:21.020Z,7.70
2023-06-29T07:12:00.903Z,7.60
2023-06-29T07:14:34.831Z,7.80
2023-06-29T07:17:08.556Z,8.90
2023-06-29T07:25:09.331Z,6.70
2023-06-29T07:27:46.640Z,7.70
2023-06-29T07:30:25.418Z,6.30
2023-06-29T07:33:03.425Z,4.80
2023-06-29T07:35:41.411Z,6.90
2023-06-29T07:38:19.129Z,6.80
2023-06-29T07:40:56.927Z,5.80
2023-06-29T07:43:34.420Z,5.00
2023-06-29T07:46:12.341Z,6.20
2023-06-29T07:48:51.397Z,4.70
2023-06-29T07:51:35.890Z,4.90
2023-06-29T07:54:14.380Z,4.40
2023-06-29T07:59:33.880Z,5.10
2023-06-29T08:02:13.076Z,5.40
2023-06-29T08:07:36.390Z,5.40
2023-06-29T08:10:14.828Z,5.60
2023-06-29T08:12:54.194Z,5.90
2023-06-29T08:15:31.994Z,4.10
2023-06-29T08:18:12.758Z,5.00
2023-06-29T08:20:50.616Z,4.40
2023-06-29T08:23:21.216Z,4.90
2023-06-29T08:25:51.880Z,3.70
2023-06-29T08:28:28.398Z,4.70
2023-06-29T08:31:07.842Z,4.90
2023-06-29T08:33:46.000Z,4.30
2023-06-29T08:36:26.909Z,3.90
2023-06-29T08:39:05.616Z,4.70
2023-06-29T08:41:43.297Z,3.70
2023-06-29T08:44:21.013Z,4.20
2023-06-29T08:47:02.456Z,2.60
2023-06-29T08:49:44.007Z,4.00
2023-06-29T08:52:27.818Z,3.80
2023-06-29T08:54:58.954Z,4.20
2023-06-29T08:57:37.714Z,3.60
2023-06-29T09:00:17.093Z,4.20
2023-06-29T09:02:57.285Z,4.30
2023-06-29T09:05:37.518Z,3.90
2023-06-29T09:08:15.390Z,3.80
2023-06-29T09:10:54.070Z,5.20
2023-06-29T09:13:36.369Z,4.20
2023-06-29T09:16:16.109Z,3.70
2023-06-29T09:19:00.726Z,4.40
2023-06-29T09:21:39.950Z,3.90
2023-06-29T09:24:21.447Z,3.10
2023-06-29T09:27:03.495Z,4.20
2023-06-29T09:29:50.382Z,3.90
2023-06-29T09:32:30.915Z,4.20
2023-06-29T09:35:11.273Z,4.70
2023-06-29T09:37:51.315Z,2.90
2023-06-29T09:40:30.131Z,3.60
2023-06-29T09:43:23.630Z,4.20
2023-06-29T09:46:13.666Z,3.70
2023-06-29T09:51:36.703Z,5.10
2023-06-29T09:54:21.577Z,3.80
2023-06-29T09:57:00.672Z,3.70
2023-06-29T09:59:51.468Z,2.60
2023-06-29T10:02:31.715Z,2.30
2023-06-29T10:05:10.210Z,3.30
2023-06-29T10:07:48.928Z,3.70
2023-06-29T10:10:29.993Z,3.20
2023-06-29T10:13:10.759Z,3.80
2023-06-29T10:15:50.857Z,4.60
2023-06-29T10:18:42.392Z,3.40
2023-06-29T10:21:15.456Z,4.70
2023-06-29T10:23:53.084Z,3.80
2023-06-29T10:26:31.440Z,3.70
2023-06-29T10:29:12.535Z,2.60
2023-06-29T10:31:50.460Z,3.20
2023-06-29T10:34:21.193Z,3.80
2023-06-29T10:37:04.646Z,2.80
2023-06-29T10:39:49.848Z,2.80
2023-06-29T10:42:31.905Z,3.80
2023-06-29T10:45:25.125Z,2.90
2023-06-29T10:48:07.997Z,3.40
2023-06-29T10:50:54.885Z,3.30
2023-06-29T10:53:37.830Z,3.90
2023-06-29T10:56:33.187Z,3.50
2023-06-29T10:59:14.683Z,2.90
2023-06-29T11:01:53.294Z,3.70
2023-06-29T11:04:32.984Z,3.70
2023-06-29T11:07:14.216Z,4.00
2023-06-29T11:10:02.459Z,3.80
2023-06-29T11:12:35.211Z,4.30
2023-06-29T11:15:22.045Z,3.60
2023-06-29T11:17:56.878Z,3.90
2023-06-29T11:20:36.496Z,4.30
2023-06-29T11:23:14.898Z,3.80
2023-06-29T11:25:54.613Z,3.20
2023-06-29T11:28:35.546Z,3.80
2023-06-29T11:31:16.878Z,3.50
2023-06-29T11:33:55.645Z,3.40
2023-06-29T11:36:38.395Z,3.80
2023-06-29T11:39:15.511Z,4.30
2023-06-29T11:41:55.375Z,3.10
2023-06-29T11:44:34.556Z,3.40
2023-06-29T11:47:32.107Z,3.00
2023-06-29T11:50:17.097Z,4.10
2023-06-29T11:52:55.210Z,3.80
2023-06-29T11:55:34.662Z,3.70
2023-06-29T11:58:16.086Z,2.10
2023-06-29T12:00:59.791Z,2.70
2023-06-29T12:03:40.226Z,3.60
2023-06-29T12:06:19.881Z,3.60
2023-06-29T12:08:53.382Z,3.90
2023-06-29T12:11:32.424Z,4.30
2023-06-29T12:14:14.156Z,3.10
2023-06-29T12:19:59.079Z,3.60
2023-06-29T12:22:35.911Z,3.30
2023-06-29T12:25:19.122Z,3.20
2023-06-29T12:27:53.715Z,3.40
2023-06-29T12:30:34.194Z,2.90
2023-06-29T12:33:15.756Z,2.60
2023-06-29T12:35:54.028Z,3.30
2023-06-29T12:38:33.333Z,3.30
2023-06-29T12:41:12.081Z,3.20
2023-06-29T12:43:51.555Z,3.60
2023-06-29T12:46:30.203Z,3.50
2023-06-29T12:49:10.255Z,3.30
2023-06-29T12:51:48.801Z,3.10
2023-06-29T12:54:27.380Z,3.70
2023-06-29T12:57:05.937Z,4.00
2023-06-29T12:59:44.036Z,4.10
2023-06-29T13:02:22.149Z,3.00
2023-06-29T13:04:59.632Z,3.90
2023-06-29T13:07:38.513Z,3.20
2023-06-29T13:10:16.078Z,3.00
2023-06-29T13:12:54.504Z,2.90
2023-06-29T13:15:32.324Z,3.10
2023-06-29T13:18:11.137Z,3.20
2023-06-29T13:20:41.961Z,2.80
2023-06-29T13:23:17.545Z,2.80
2023-06-29T13:25:55.228Z,3.50
2023-06-29T13:28:34.420Z,3.60
2023-06-29T13:31:09.348Z,3.50
2023-06-29T13:33:43.942Z,3.70
2023-06-29T13:36:22.649Z,3.80
2023-06-29T13:39:01.976Z,4.20
2023-06-29T13:41:46.327Z,3.50
2023-06-29T13:44:23.950Z,3.10
2023-06-29T13:47:02.839Z,3.60
2023-06-29T13:49:43.457Z,3.70
2023-06-29T13:52:21.081Z,3.20
2023-06-29T13:54:59.539Z,4.10
2023-06-29T13:57:37.134Z,3.50
2023-06-29T14:00:16.407Z,3.60
2023-06-29T14:02:54.458Z,3.10
2023-06-29T14:05:31.063Z,3.40
2023-06-29T14:08:01.810Z,3.80
2023-06-29T14:10:39.180Z,5.70
2023-06-29T14:13:17.542Z,3.80
2023-06-29T14:15:56.032Z,4.00
2023-06-29T14:18:35.821Z,3.60
2023-06-29T14:21:15.891Z,4.60
2023-06-29T14:23:55.886Z,3.90
2023-06-29T14:26:34.330Z,2.80
2023-06-29T14:29:13.141Z,4.40
2023-06-29T14:31:51.632Z,3.40
2023-06-29T14:34:30.375Z,4.20
2023-06-29T14:37:10.082Z,4.80
2023-06-29T14:39:49.085Z,4.50
2023-06-29T14:42:28.767Z,4.60
2023-06-29T14:45:06.832Z,4.60
2023-06-29T14:47:38.716Z,4.10
2023-06-29T14:50:17.543Z,4.00
2023-06-29T14:52:56.702Z,4.50
2023-06-29T14:55:35.740Z,3.60
2023-06-29T14:58:14.966Z,3.60
2023-06-29T15:00:54.846Z,4.60
2023-06-29T15:03:26.579Z,3.00
2023-06-29T15:06:00.927Z,3.00
2023-06-29T15:08:41.135Z,4.10
2023-06-29T15:11:11.758Z,4.10
2023-06-29T15:13:50.388Z,6.00
2023-06-29T15:16:31.019Z,4.20
2023-06-29T15:19:10.305Z,3.70
2023-06-29T15:21:50.442Z,4.00
2023-06-29T15:27:07.052Z,4.10
2023-06-29T15:29:45.697Z,4.30
2023-06-29T15:32:25.342Z,3.30
2023-06-29T15:35:04.725Z,3.40
2023-06-29T15:37:43.929Z,3.50
2023-06-29T15:40:24.172Z,3.00
2023-06-29T15:43:01.972Z,3.60
2023-06-29T15:45:40.715Z,3.60
2023-06-29T15:48:18.179Z,3.40
2023-06-29T15:50:49.360Z,3.40
2023-06-29T15:53:22.481Z,3.40
2023-06-29T15:56:00.403Z,3.50
2023-06-29T15:58:40.318Z,3.50
2023-06-29T16:01:19.851Z,3.50
2023-06-29T16:03:58.958Z,3.80
2023-06-29T16:06:37.376Z,4.00
2023-06-29T16:09:16.078Z,4.10
2023-06-29T16:11:53.712Z,3.30
2023-06-29T16:14:31.974Z,3.70
2023-06-29T16:17:11.689Z,3.60
2023-06-29T16:19:42.102Z,3.60
2023-06-29T16:22:20.215Z,3.10
2023-06-29T16:24:58.544Z,3.80
2023-06-29T16:27:37.049Z,3.00
2023-06-29T16:30:08.275Z,4.20
2023-06-29T16:32:43.144Z,3.90
2023-06-29T16:35:21.277Z,3.60
2023-06-29T16:37:59.035Z,3.20
2023-06-29T16:40:37.019Z,3.50
2023-06-29T16:43:15.704Z,2.50
2023-06-29T16:45:54.689Z,3.80
2023-06-29T16:48:33.484Z,3.50
2023-06-29T16:51:12.506Z,3.50
2023-06-29T16:53:47.192Z,3.60
2023-06-29T16:56:25.193Z,2.30
2023-06-29T16:59:03.386Z,2.90
2023-06-29T17:01:33.931Z,3.30
2023-06-29T17:04:04.965Z,3.50
2023-06-29T17:06:43.438Z,2.80
2023-06-29T17:09:21.888Z,3.70
2023-06-29T17:12:00.548Z,3.60
2023-06-29T17:14:31.172Z,3.60
2023-06-29T17:17:10.814Z,3.60
2023-06-29T17:19:50.500Z,4.10
2023-06-29T17:22:28.515Z,3.80
2023-06-29T17:25:07.570Z,4.20
2023-06-29T17:27:46.256Z,4.30
2023-06-29T17:30:24.737Z,4.30
2023-06-29T17:33:04.878Z,4.20
2023-06-29T17:35:44.630Z,4.00
2023-06-29T17:38:24.135Z,4.50
2023-06-29T17:41:02.757Z,3.30
2023-06-29T17:43:42.553Z,3.80
2023-06-29T17:46:22.051Z,3.90
2023-06-29T17:49:01.569Z,4.20
2023-06-29T17:51:33.020Z,3.60
2023-06-29T17:54:06.260Z,3.60
2023-06-29T17:56:44.760Z,3.70
2023-06-29T17:59:24.180Z,3.70
2023-06-29T18:02:02.747Z,3.60
2023-06-29T18:04:41.097Z,4.20
2023-06-29T18:07:19.597Z,3.70
2023-06-29T18:09:58.819Z,4.10
2023-06-29T18:12:37.226Z,3.50
2023-06-29T18:15:16.927Z,4.10
2023-06-29T18:17:57.485Z,4.80
2023-06-29T18:20:38.037Z,3.50
2023-06-29T18:23:16.784Z,4.20
2023-06-29T18:25:47.938Z,4.00
2023-06-29T18:28:26.713Z,2.40
2023-06-29T18:31:05.654Z,3.30
2023-06-29T18:33:43.770Z,4.30
2023-06-29T18:36:21.795Z,4.20
2023-06-29T18:39:04.839Z,3.60
2023-06-29T18:41:42.993Z,3.50
2023-06-29T18:44:20.937Z,4.00
2023-06-29T18:47:18.749Z,4.60
2023-06-29T18:49:58.662Z,3.50
2023-06-29T18:52:36.894Z,2.70
2023-06-29T18:55:15.730Z,3.10
2023-06-29T18:57:53.876Z,3.00
2023-06-29T19:00:31.738Z,4.30
2023-06-29T19:03:02.036Z,4.50
2023-06-29T19:05:33.653Z,4.60
2023-06-29T19:08:08.373Z,6.60
2023-06-29T19:10:46.965Z,4.70
2023-06-29T19:13:27.727Z,4.60
2023-06-29T19:16:06.716Z,5.20
2023-06-29T19:18:46.286Z,4.70
2023-06-29T19:21:32.342Z,5.10
2023-06-29T19:24:12.524Z,4.60
2023-06-29T19:26:48.707Z,4.70
2023-06-29T19:29:28.459Z,2.20
2023-06-29T19:32:07.810Z,3.20
2023-06-29T19:34:45.659Z,4.80
2023-06-29T19:37:26.609Z,4.70
2023-06-29T19:40:04.783Z,2.20
2023-06-29T19:42:42.836Z,4.60
2023-06-29T19:45:20.538Z,3.90
2023-06-29T19:47:58.959Z,3.70
2023-06-29T19:50:38.436Z,4.50
2023-06-29T19:53:16.966Z,4.20
2023-06-29T19:55:56.438Z,4.00
2023-06-29T19:58:34.334Z,4.60
2023-06-29T20:01:13.004Z,4.90
2023-06-29T20:03:51.167Z,4.40
2023-06-29T20:06:29.379Z,5.20
2023-06-29T20:09:08.191Z,4.50
2023-06-29T20:11:45.238Z,4.90
2023-06-29T20:14:15.769Z,4.50
2023-06-29T20:16:50.576Z,4.60
2023-06-29T20:19:28.272Z,5.20
2023-06-29T20:22:06.867Z,4.70
2023-06-29T20:24:44.997Z,5.20
2023-06-29T20:27:23.097Z,5.30
2023-06-29T20:30:00.990Z,4.70
2023-06-29T20:32:39.447Z,4.90
2023-06-29T20:35:18.725Z,5.10
2023-06-29T20:37:56.285Z,5.30
2023-06-29T20:40:34.775Z,6.00
2023-06-29T20:43:14.700Z,5.50
2023-06-29T20:45:45.979Z,6.30
2023-06-29T20:48:18.771Z,6.10
2023-06-29T20:51:00.726Z,5.90
2023-06-29T20:53:48.770Z,5.30
2023-06-29T20:56:26.960Z,4.90
2023-06-29T20:59:04.773Z,5.40
2023-06-29T21:01:35.514Z,5.90
2023-06-29T21:04:12.023Z,5.30
2023-06-29T21:06:49.748Z,5.00
2023-06-29T21:09:27.217Z,5.50
2023-06-29T21:12:04.636Z,5.50
2023-06-29T21:14:41.748Z,6.00
2023-06-29T21:17:19.944Z,5.80
2023-06-29T21:20:01.018Z,5.80
2023-06-29T21:22:39.806Z,7.20
2023-06-29T21:25:18.290Z,4.70
2023-06-29T21:27:56.476Z,4.90
2023-06-29T21:30:36.019Z,5.00
2023-06-29T21:33:14.248Z,4.80
2023-06-29T21:35:52.825Z,4.80
2023-06-29T21:38:32.401Z,3.80
2023-06-29T21:41:11.194Z,4.10
2023-06-29T21:43:48.600Z,3.50
2023-06-29T21:46:26.319Z,2.90
2023-06-29T21:48:59.469Z,3.40
2023-06-29T21:51:33.424Z,3.30
2023-06-29T21:54:15.196Z,3.10
2023-06-29T21:56:52.898Z,3.60
2023-06-29T21:59:30.878Z,2.90
2023-06-29T22:02:08.882Z,3.40
2023-06-29T22:04:46.787Z,3.20
2023-06-29T22:07:24.734Z,3.70
2023-06-29T22:10:03.742Z,4.00
2023-06-29T22:12:44.686Z,4.00
2023-06-29T22:15:22.698Z,4.20
2023-06-29T22:18:01.791Z,3.80
2023-06-29T22:20:39.607Z,4.40
2023-06-29T22:23:17.704Z,4.00
2023-06-29T22:25:55.723Z,4.10
2023-06-29T22:28:33.330Z,4.00
2023-06-29T22:31:05.371Z,3.80
2023-06-29T22:33:43.384Z,4.20
2023-06-29T22:36:18.227Z,4.00
2023-06-29T22:38:50.154Z,4.50
2023-06-29T22:41:28.735Z,4.20
2023-06-29T22:44:06.596Z,4.60
2023-06-29T22:46:44.466Z,4.10
2023-06-29T22:49:22.480Z,4.50
2023-06-29T22:51:59.544Z,4.20
2023-06-29T22:54:36.970Z,4.50
2023-06-29T22:57:14.857Z,5.10
2023-06-29T22:59:54.255Z,4.80
2023-06-29T23:02:32.120Z,5.00
2023-06-29T23:05:11.123Z,4.60
2023-06-29T23:07:48.744Z,6.00
2023-06-29T23:10:30.965Z,5.40
2023-06-29T23:13:18.438Z,5.10
2023-06-29T23:15:55.870Z,6.10
2023-06-29T23:18:33.165Z,5.80
2023-06-29T23:21:13.674Z,6.70
2023-06-29T23:23:57.021Z,6.60
2023-06-29T23:26:35.858Z,5.30
2023-06-29T23:29:14.132Z,6.10
2023-06-29T23:31:52.730Z,6.00
2023-06-29T23:34:31.282Z,7.60
2023-06-29T23:37:11.592Z,6.90
2023-06-29T23:39:49.669Z,6.40
2023-06-29T23:42:27.430Z,5.80
2023-06-29T23:45:04.851Z,6.50
2023-06-29T23:47:34.671Z,7.40
2023-06-29T23:50:12.928Z,6.40
2023-06-29T23:52:51.277Z,6.40
2023-06-29T23:55:30.573Z,7.00
2023-06-29T23:58:09.366Z,6.50
